Aérodrome :
LOGIN :

S'inscrire | Disclaimer

   EN    FR    IT 

 










Légende :    VFR   VFR Marginal   IFR   IFR Intensif   IFR Très Intensif
Visi : 
Plafond : 
>= 8 km
>= 3000ft
5 à 8 km
1000 à 3000 ft
1500m à 5 km
500 à 1000 ft
800 à 1500m
200 à 500 ft
< 800m
< 200 ft
Symboles :   Orages  Brouillard  Fortes neiges  Fortes précipitations  Vent > 20 kt
SIGMETs :   Divers  Orages  Givrage  Turbulence  Onde Orograph.  Cendres Volcan.







- Altitude de l'aérodrome : 348 ft
- Code IATA : LDV
- Voir les cartes d'approche


LFRJ - Landivisiau

DERNIER METAR :
  • 232130Z AUTO 23019KT 9999 BKN006 OVC011 12/12 Q1019

METARs EXPIRÉS :
  • 232100Z AUTO 22016KT 5000 -RADZ BR BKN006 OVC014 12/12 Q1019
  • 232030Z AUTO 23017KT 8000 -RA BKN007 OVC015 12/12 Q1019
  • 232000Z AUTO 24016KT 9999 BKN008 OVC014 12/12 Q1020 TEMPO 1000 BCFG VV/// BECMG 24018G28KT
  • 231930Z AUTO 23018KT 9999 BKN007 OVC013 12/12 Q1020 TEMPO 1000 BCFG VV/// BECMG 24018G28KT
  • 231900Z AUTO 23019KT 9999 BKN005 OVC009 12/12 Q1020 TEMPO 1000 BCFG VV/// BECMG 24018G28KT

TAF TAF LFRJ
Valide du 23 à 18h jusqu'au 24 à 03h UTC


231700Z 2318/2403 24018G28KT 6000 OVC004
TEMPO 2318/2324 3000 DZ BR OVC002
PROB30
TEMPO 2320/2322 1000 BCFG VV///
BECMG 2322/2324 0800 FG VV///
Pas de NOTAMs connus pour ce terrain.



MET'MAP, la Météo Aéronautique d'un coup d'oeil ! - Copyright ORBIFLY Décembre 2007 - Disclaimer

ORBIFLY MET'MAP TEAM :

Programmation & Développement : Alexandra Zaïnal
Conception & Développement : Baudouin d'Aumeries
Co-Programmation & Développement : Marc-Olivier Méhu
Soutien technique & logistique : Manuel Goepfert

Contact : metmap@orbifly.com




SOURCES & CREDITS :

   NOAA